Time;durP1;ratioP1;P1;durP2;ratioP2;P2;SDS_P1;SDS_P2;PMS_P1;PMS_P2;Temp;Humidity;BMP_temperature;BMP_pressure;BME280_temperature;BME280_humidity;BME280_pressure;Samples;Min_cycle;Max_cycle;Signal;HPM_P1;HPM_P2
2022/01/15 00:00:27;;;;;;;116.43;105.25;;;7.80;99.90;;;;;;5017541;28;20081;-83
2022/01/15 00:02:54;;;;;;;115.10;104.00;;;7.80;99.90;;;;;;5018323;28;20428;-83
2022/01/15 00:05:22;;;;;;;115.15;104.15;;;7.80;99.90;;;;;;5018174;28;20129;-83
2022/01/15 00:07:48;;;;;;;115.85;104.85;;;7.80;99.90;;;;;;5017853;28;20042;-83
2022/01/15 00:10:17;;;;;;;115.32;104.15;;;7.80;99.90;;;;;;5017909;28;20508;-83
2022/01/15 00:12:44;;;;;;;114.15;103.15;;;7.80;99.90;;;;;;5017981;28;20084;-83
2022/01/15 00:15:18;;;;;;;115.30;104.13;;;7.80;99.90;;;;;;5001697;28;20555;-83
2022/01/15 00:17:52;;;;;;;115.72;104.47;;;7.80;99.90;;;;;;5001110;28;20050;-83
2022/01/15 00:20:21;;;;;;;115.75;104.30;;;7.80;99.90;;;;;;5001551;28;20050;-83
2022/01/15 00:22:49;;;;;;;117.72;106.43;;;7.80;99.90;;;;;;5001809;28;20054;-83
2022/01/15 00:25:17;;;;;;;115.07;104.07;;;7.80;99.90;;;;;;5018465;28;20065;-83
2022/01/15 00:27:44;;;;;;;115.57;104.53;;;7.80;99.90;;;;;;5017570;28;20052;-83
2022/01/15 00:30:14;;;;;;;116.05;104.75;;;7.80;99.90;;;;;;5017546;28;20587;-83
2022/01/15 00:32:41;;;;;;;114.78;103.72;;;7.80;99.90;;;;;;5034323;28;20050;-83
2022/01/15 00:35:10;;;;;;;;;;;7.70;99.90;;;;;;5002012;28;20514;-83
2022/01/15 00:37:37;;;;;;;115.38;104.20;;;7.70;99.90;;;;;;5034290;28;19937;-83
2022/01/15 00:40:05;;;;;;;;;;;7.70;99.90;;;;;;5017695;28;20577;-83
2022/01/15 00:42:34;;;;;;;115.75;104.53;;;7.70;99.90;;;;;;5001316;28;19926;-83
2022/01/15 00:45:01;;;;;;;113.97;103.03;;;7.80;99.90;;;;;;5001086;28;20053;-83
2022/01/15 00:47:31;;;;;;;114.85;103.82;;;7.80;99.90;;;;;;5000573;28;20140;-83
2022/01/15 00:49:59;;;;;;;113.82;102.93;;;7.70;99.90;;;;;;5017317;28;20056;-83
2022/01/15 00:52:26;;;;;;;114.00;103.07;;;7.80;99.90;;;;;;5000821;28;20061;-83
2022/01/15 00:54:53;;;;;;;114.00;103.10;;;7.80;99.90;;;;;;5017082;28;20132;-83
2022/01/15 00:57:20;;;;;;;;;;;7.80;99.90;;;;;;5001272;28;20054;-83
2022/01/15 00:59:47;;;;;;;115.25;104.00;;;7.80;99.90;;;;;;5017609;28;19972;-83
2022/01/15 01:02:14;;;;;;;;;;;7.80;99.90;;;;;;5017899;28;20054;-83
2022/01/15 01:04:42;;;;;;;115.03;103.82;;;7.70;99.90;;;;;;5001305;28;20032;-84
2022/01/15 01:07:09;;;;;;;115.15;103.95;;;7.80;99.90;;;;;;5033182;28;20503;-83
2022/01/15 01:09:51;;;;;;;114.80;103.80;;;7.80;99.90;;;;;;5017078;28;20060;-83
2022/01/15 01:12:28;;;;;;;115.10;103.95;;;7.80;99.90;;;;;;5000696;28;20069;-83
2022/01/15 01:20:38;;;;;;;114.07;103.07;;;7.80;99.90;;;;;;5009480;28;20065;-83
2022/01/15 01:23:05;;;;;;;115.45;104.25;;;7.80;99.90;;;;;;5000444;28;20061;-83
2022/01/15 01:25:37;;;;;;;;;;;7.80;99.90;;;;;;5017929;28;20060;-83
2022/01/15 01:28:09;;;;;;;115.20;104.00;;;7.80;99.90;;;;;;5000252;28;19933;-83
2022/01/15 01:30:41;;;;;;;116.00;104.85;;;7.80;99.90;;;;;;5016725;28;20154;-83
2022/01/15 01:33:28;;;;;;;116.50;105.30;;;7.80;99.90;;;;;;5000302;28;20053;-83
2022/01/15 01:36:07;;;;;;;114.90;103.78;;;7.80;99.90;;;;;;5016586;28;20053;-83
2022/01/15 01:38:40;;;;;;;116.50;105.30;;;7.80;99.90;;;;;;5016335;28;20125;-83
2022/01/15 01:41:13;;;;;;;115.22;104.18;;;7.80;99.90;;;;;;5016342;28;20050;-83
2022/01/15 01:43:46;;;;;;;116.90;105.88;;;7.80;99.90;;;;;;5018230;28;20443;-83
2022/01/15 01:46:31;;;;;;;117.78;106.63;;;7.90;99.90;;;;;;5015459;28;20084;-83
2022/01/15 01:48:59;;;;;;;114.80;103.80;;;7.80;99.90;;;;;;4998301;28;20046;-83
2022/01/15 01:51:31;;;;;;;115.35;104.35;;;7.80;99.90;;;;;;5000055;28;20053;-83
2022/01/15 01:53:59;;;;;;;115.18;104.18;;;7.80;99.90;;;;;;5016498;28;20077;-83
2022/01/15 01:56:27;;;;;;;116.05;104.90;;;7.80;99.90;;;;;;5000071;28;20049;-83
2022/01/15 01:58:54;;;;;;;115.30;104.28;;;7.70;99.90;;;;;;5016031;28;20050;-83
2022/01/15 02:01:22;;;;;;;115.25;104.25;;;7.80;99.90;;;;;;5016287;28;20046;-83
2022/01/15 02:03:49;;;;;;;115.45;104.32;;;7.80;99.90;;;;;;5016262;28;20062;-83
2022/01/15 02:06:17;;;;;;;114.93;103.95;;;7.80;99.90;;;;;;5016222;28;20498;-83
2022/01/15 02:08:46;;;;;;;114.60;103.55;;;7.80;99.90;;;;;;4998799;28;20054;-83
2022/01/15 02:11:13;;;;;;;115.68;104.68;;;7.80;99.90;;;;;;5016422;28;20053;-83
2022/01/15 02:13:42;;;;;;;118.35;106.85;;;7.80;99.90;;;;;;4999910;28;20112;-83
2022/01/15 02:16:10;;;;;;;115.03;104.03;;;7.80;99.90;;;;;;5015963;28;20050;-83
2022/01/15 02:18:37;;;;;;;113.57;102.70;;;7.80;99.90;;;;;;5015767;28;20107;-83
2022/01/15 02:23:51;;;;;;;;;;;7.80;99.90;;;;;;5000862;28;19925;-83
2022/01/15 02:26:19;;;;;;;116.82;105.60;;;7.70;99.90;;;;;;5000198;28;19925;-83
2022/01/15 02:28:52;;;;;;;115.95;104.82;;;7.70;99.90;;;;;;5015020;28;20108;-83
2022/01/15 02:31:20;;;;;;;114.03;103.13;;;7.70;99.90;;;;;;4999902;28;20049;-83
2022/01/15 02:33:49;;;;;;;113.25;102.38;;;7.70;99.90;;;;;;5032182;28;20348;-83
2022/01/15 02:36:19;;;;;;;115.07;104.03;;;7.70;99.90;;;;;;5015848;28;20561;-83
2022/01/15 02:38:47;;;;;;;115.63;104.53;;;7.70;99.90;;;;;;4999146;28;20042;-83
2022/01/15 02:41:15;;;;;;;114.97;103.97;;;7.70;99.90;;;;;;4998662;28;20515;-83
2022/01/15 02:43:42;;;;;;;115.03;104.10;;;7.70;99.90;;;;;;5016460;28;20256;-83
2022/01/15 02:46:22;;;;;;;115.72;104.63;;;7.70;99.90;;;;;;4999441;28;20069;-83
2022/01/15 02:48:52;;;;;;;114.95;103.97;;;7.80;99.90;;;;;;5015324;28;20436;-83
2022/01/15 02:51:21;;;;;;;115.63;104.53;;;7.80;99.90;;;;;;5015426;28;20049;-83
2022/01/15 02:53:55;;;;;;;114.88;103.90;;;7.70;99.90;;;;;;5015496;28;20543;-83
2022/01/15 02:56:23;;;;;;;114.15;103.25;;;7.70;99.90;;;;;;4999153;28;20143;-83
2022/01/15 02:58:50;;;;;;;114.10;103.20;;;7.70;99.90;;;;;;5015101;28;20054;-83
2022/01/15 03:01:18;;;;;;;114.65;103.70;;;7.70;99.90;;;;;;5015319;28;20057;-83
2022/01/15 03:03:45;;;;;;;112.80;102.00;;;7.70;99.90;;;;;;5015194;28;20108;-83
2022/01/15 03:06:12;;;;;;;114.63;103.72;;;7.70;99.90;;;;;;5015295;28;20053;-83
2022/01/15 03:08:41;;;;;;;115.00;104.00;;;7.70;99.90;;;;;;4998564;28;20526;-83
2022/01/15 03:11:09;;;;;;;114.75;103.75;;;7.70;99.90;;;;;;4998727;28;20447;-83
2022/01/15 03:13:36;;;;;;;;;;;7.70;99.90;;;;;;5015862;28;20062;-83
2022/01/15 03:16:03;;;;;;;113.93;102.90;;;7.70;99.90;;;;;;5015712;28;19925;-83
2022/01/15 03:18:30;;;;;;;114.32;103.30;;;7.70;99.90;;;;;;5014934;28;20057;-83
2022/01/15 03:20:57;;;;;;;114.15;103.10;;;7.70;99.90;;;;;;4998520;28;20060;-83
2022/01/15 03:23:23;;;;;;;;;;;7.80;99.90;;;;;;4999259;28;20436;-83
2022/01/15 03:25:52;;;;;;;;;;;7.80;99.90;;;;;;4999434;28;19926;-83
2022/01/15 03:28:19;;;;;;;113.63;102.60;;;7.70;99.90;;;;;;4999012;28;19929;-83
2022/01/15 03:30:46;;;;;;;;;;;7.70;99.90;;;;;;5015370;28;20096;-83
2022/01/15 03:33:12;;;;;;;114.88;103.72;;;7.80;99.90;;;;;;5015349;28;19984;-83
2022/01/15 03:35:39;;;;;;;114.47;103.35;;;7.70;99.90;;;;;;4998300;28;20913;-83
2022/01/15 03:38:07;;;;;;;;;;;7.80;99.90;;;;;;5015048;28;20060;-83
2022/01/15 03:40:34;;;;;;;113.68;102.57;;;7.80;99.90;;;;;;5048376;28;20023;-83
2022/01/15 03:43:04;;;;;;;114.38;103.32;;;7.70;99.90;;;;;;5014993;28;20076;-83
2022/01/15 03:45:32;;;;;;;113.78;102.88;;;7.70;99.90;;;;;;5015165;28;20093;-83
2022/01/15 03:47:59;;;;;;;114.47;103.47;;;7.70;99.90;;;;;;4997997;28;20060;-83
2022/01/15 03:50:26;;;;;;;;;;;7.70;99.90;;;;;;5015546;28;20129;-83
2022/01/15 03:52:54;;;;;;;112.63;101.75;;;7.70;99.90;;;;;;5048484;28;19925;-83
2022/01/15 03:55:22;;;;;;;113.57;102.68;;;7.70;99.90;;;;;;5014656;28;20054;-82
2022/01/15 03:57:49;;;;;;;113.60;102.70;;;7.70;99.90;;;;;;5014398;28;20054;-83
2022/01/15 04:00:18;;;;;;;;;;;7.70;99.90;;;;;;4998616;28;20103;-83
2022/01/15 04:02:48;;;;;;;113.45;102.50;;;7.60;99.90;;;;;;5031509;28;19929;-83
2022/01/15 04:05:15;;;;;;;113.93;103.03;;;7.70;99.90;;;;;;5014788;28;20504;-83
2022/01/15 04:07:42;;;;;;;113.25;102.45;;;7.70;99.90;;;;;;5014071;28;20046;-83
2022/01/15 04:10:12;;;;;;;113.32;102.43;;;7.70;99.90;;;;;;5014052;28;20132;-83
2022/01/15 04:12:39;;;;;;;112.72;102.03;;;7.70;99.90;;;;;;4997991;28;20145;-83
2022/01/15 04:15:08;;;;;;;117.00;105.93;;;7.70;99.90;;;;;;5013821;28;20057;-83
2022/01/15 04:17:37;;;;;;;114.40;103.40;;;7.70;99.90;;;;;;5013790;28;20054;-83
2022/01/15 04:20:04;;;;;;;113.75;102.88;;;7.70;99.90;;;;;;5014432;28;20065;-83
2022/01/15 04:22:31;;;;;;;114.88;103.85;;;7.70;99.90;;;;;;5014862;28;20073;-83
2022/01/15 04:24:58;;;;;;;113.47;102.60;;;7.60;99.90;;;;;;5014506;28;20509;-83
2022/01/15 04:27:25;;;;;;;114.43;103.43;;;7.60;99.90;;;;;;4997622;28;20582;-83
2022/01/15 04:29:55;;;;;;;114.00;103.10;;;7.60;99.90;;;;;;5014259;28;20140;-83
2022/01/15 04:32:22;;;;;;;115.13;103.93;;;7.60;99.90;;;;;;5001595;28;20057;-83
2022/01/15 04:34:50;;;;;;;116.90;105.78;;;7.60;99.90;;;;;;5018345;28;20058;-83
2022/01/15 04:37:21;;;;;;;116.47;105.38;;;7.60;99.90;;;;;;5017077;28;20054;-83
2022/01/15 04:39:48;;;;;;;114.90;103.85;;;7.50;99.90;;;;;;5017497;28;20050;-83
2022/01/15 04:42:16;;;;;;;114.22;103.22;;;7.60;99.90;;;;;;5017158;28;20057;-83
2022/01/15 04:44:43;;;;;;;113.55;102.55;;;7.50;99.90;;;;;;5017620;28;20607;-83
2022/01/15 04:47:10;;;;;;;116.18;104.90;;;7.50;99.90;;;;;;5000745;28;20104;-83
2022/01/15 04:49:37;;;;;;;113.63;102.63;;;7.50;99.90;;;;;;5001181;28;20049;-83
2022/01/15 04:52:06;;;;;;;;;;;7.50;99.90;;;;;;5001698;28;20050;-83
2022/01/15 04:54:33;;;;;;;114.45;103.15;;;7.50;99.90;;;;;;5033831;28;19932;-83
2022/01/15 04:57:00;;;;;;;115.80;104.40;;;7.50;99.90;;;;;;5017145;28;20265;-83
2022/01/15 04:59:27;;;;;;;113.78;102.68;;;7.50;99.90;;;;;;5000870;28;20084;-83
2022/01/15 05:01:54;;;;;;;114.57;103.40;;;7.50;99.90;;;;;;5001081;28;20125;-83
2022/01/15 05:04:21;;;;;;;115.70;104.55;;;7.50;99.90;;;;;;5000920;28;20077;-83
2022/01/15 05:06:48;;;;;;;114.85;103.70;;;7.40;99.90;;;;;;5017082;28;20052;-83
2022/01/15 05:09:16;;;;;;;114.25;103.15;;;7.50;99.90;;;;;;5016846;28;20108;-83
2022/01/15 05:11:47;;;;;;;114.15;103.18;;;7.40;99.90;;;;;;5016881;28;20500;-83
2022/01/15 05:14:16;;;;;;;114.60;103.40;;;7.50;99.90;;;;;;5000677;28;20133;-83
2022/01/15 05:16:43;;;;;;;113.63;102.72;;;7.40;99.90;;;;;;5016790;28;20053;-83
2022/01/15 05:19:10;;;;;;;112.72;101.93;;;7.50;99.90;;;;;;5016711;28;20053;-83
2022/01/15 05:21:37;;;;;;;113.65;102.75;;;7.50;99.90;;;;;;5016551;28;20046;-83
2022/01/15 05:24:05;;;;;;;114.63;103.60;;;7.40;99.90;;;;;;5000305;28;20089;-83
2022/01/15 05:26:34;;;;;;;113.57;102.70;;;7.40;99.90;;;;;;5000343;28;20053;-83
2022/01/15 05:29:01;;;;;;;113.22;102.32;;;7.40;99.90;;;;;;5016457;28;20613;-83
2022/01/15 05:31:28;;;;;;;;;;;7.40;99.90;;;;;;5023603;28;20538;-83
2022/01/15 05:33:55;;;;;;;;;;;7.40;99.90;;;;;;5034547;28;20018;-83
2022/01/15 05:36:22;;;;;;;115.97;104.53;;;7.30;99.90;;;;;;5025499;28;19929;-83
2022/01/15 05:38:49;;;;;;;113.50;102.40;;;7.30;99.90;;;;;;5016505;28;20088;-83
2022/01/15 05:41:16;;;;;;;113.18;102.15;;;7.30;99.90;;;;;;4999956;28;20056;-83
2022/01/15 05:43:44;;;;;;;113.65;102.55;;;7.30;99.90;;;;;;5015861;28;20542;-83
2022/01/15 05:46:11;;;;;;;114.57;103.40;;;7.30;99.90;;;;;;5016617;28;20500;-83
2022/01/15 05:48:38;;;;;;;114.28;103.05;;;7.30;99.90;;;;;;4999831;28;20058;-83
2022/01/15 05:51:05;;;;;;;113.47;102.57;;;7.30;99.90;;;;;;5016494;28;20177;-83
2022/01/15 05:53:32;;;;;;;113.20;102.20;;;7.30;99.90;;;;;;5016407;28;20050;-83
2022/01/15 05:55:59;;;;;;;112.97;102.13;;;7.30;99.90;;;;;;5000003;28;20057;-83
2022/01/15 05:58:26;;;;;;;113.13;102.05;;;7.30;99.90;;;;;;4999561;28;20056;-83
2022/01/15 06:00:55;;;;;;;114.70;103.70;;;7.30;99.90;;;;;;4999719;28;20054;-83
2022/01/15 06:03:22;;;;;;;113.05;102.15;;;7.30;99.90;;;;;;5009297;28;20120;-83
2022/01/15 06:05:48;;;;;;;;;;;7.20;99.90;;;;;;5017782;28;20041;-82
2022/01/15 06:08:15;;;;;;;112.30;101.07;;;7.30;99.90;;;;;;5033848;28;20016;-83
2022/01/15 06:10:42;;;;;;;112.40;101.50;;;7.20;99.90;;;;;;5016873;28;20046;-83
2022/01/15 06:13:09;;;;;;;;;;;7.20;99.90;;;;;;5017762;28;20081;-83
2022/01/15 06:15:36;;;;;;;;;;;7.20;99.90;;;;;;5051031;28;19929;-83
2022/01/15 06:18:04;;;;;;;;;;;7.10;99.90;;;;;;5001457;28;20008;-82
2022/01/15 06:20:31;;;;;;;112.78;101.60;;;7.10;99.90;;;;;;5000962;28;19925;-83
2022/01/15 06:22:58;;;;;;;;;;;7.20;99.90;;;;;;5001044;28;20045;-83
2022/01/15 06:25:25;;;;;;;;;;;7.10;99.90;;;;;;5001496;28;19929;-83
2022/01/15 06:27:52;;;;;;;;;;;7.10;99.90;;;;;;5017875;28;19947;-83
2022/01/15 06:30:19;;;;;;;112.53;101.43;;;7.00;99.90;;;;;;5000810;28;19925;-83
2022/01/15 06:32:46;;;;;;;111.60;100.60;;;7.10;99.90;;;;;;5016969;28;20085;-83
2022/01/15 06:35:17;;;;;;;111.88;100.97;;;7.10;99.90;;;;;;5016536;28;20042;-82
2022/01/15 06:37:44;;;;;;;115.82;104.65;;;7.10;99.90;;;;;;5016645;28;20128;-83
2022/01/15 06:40:12;;;;;;;115.75;104.90;;;7.00;99.90;;;;;;5016315;28;20054;-83
2022/01/15 06:42:39;;;;;;;114.85;103.95;;;7.10;99.90;;;;;;5016892;28;20089;-83
2022/01/15 06:45:07;;;;;;;113.13;102.20;;;7.00;99.90;;;;;;5000024;28;20050;-83
2022/01/15 06:47:34;;;;;;;111.97;101.22;;;7.10;99.90;;;;;;4999972;28;20515;-83
2022/01/15 06:50:04;;;;;;;111.05;100.45;;;7.10;99.90;;;;;;5000100;28;20050;-83
2022/01/15 06:52:33;;;;;;;114.88;104.03;;;7.10;99.90;;;;;;5000059;28;20060;-82
2022/01/15 06:55:00;;;;;;;114.03;103.22;;;7.10;99.90;;;;;;5015643;28;20048;-82
2022/01/15 06:57:27;;;;;;;112.50;101.80;;;7.00;99.90;;;;;;5015967;28;20141;-83
2022/01/15 06:59:55;;;;;;;114.75;103.85;;;7.00;99.90;;;;;;5016369;28;20050;-83
2022/01/15 07:02:22;;;;;;;;;;;7.00;99.90;;;;;;4992657;28;20061;-82
2022/01/15 07:04:49;;;;;;;114.43;103.40;;;7.00;99.90;;;;;;5032919;28;19941;-82
2022/01/15 07:07:16;;;;;;;114.93;104.03;;;7.00;99.90;;;;;;4999856;28;20469;-83
2022/01/15 07:09:44;;;;;;;111.97;101.28;;;6.90;99.90;;;;;;4999582;28;20065;-83
2022/01/15 07:12:12;;;;;;;113.90;103.05;;;6.90;99.90;;;;;;5016128;28;20108;-82
2022/01/15 07:14:39;;;;;;;112.95;102.15;;;6.90;99.90;;;;;;4999634;28;20052;-83
2022/01/15 07:17:06;;;;;;;;;;;6.90;99.90;;;;;;5016193;28;20133;-82
2022/01/15 07:19:32;;;;;;;;;;;6.90;99.90;;;;;;5033176;28;19925;-83
2022/01/15 07:22:00;;;;;;;114.68;103.57;;;6.80;99.90;;;;;;5000135;28;19971;-83
2022/01/15 07:24:27;;;;;;;114.30;103.30;;;6.80;99.90;;;;;;5015954;28;20050;-82
2022/01/15 07:26:55;;;;;;;114.40;103.40;;;6.80;99.90;;;;;;5016060;28;20141;-83
2022/01/15 07:29:24;;;;;;;114.15;103.25;;;6.80;99.90;;;;;;5007873;28;20060;-83
2022/01/15 07:31:53;;;;;;;113.85;103.05;;;6.80;99.90;;;;;;4999632;28;20056;-82
2022/01/15 07:34:21;;;;;;;114.88;103.80;;;6.80;99.90;;;;;;4999610;28;20409;-82
2022/01/15 07:36:53;;;;;;;116.40;105.40;;;6.80;99.90;;;;;;5015899;28;20531;-83
2022/01/15 07:39:20;;;;;;;112.93;101.95;;;6.80;99.90;;;;;;4999370;28;20079;-83
2022/01/15 07:41:47;;;;;;;117.07;105.85;;;6.80;99.90;;;;;;5015331;28;20132;-83
2022/01/15 07:44:16;;;;;;;114.95;103.95;;;6.80;99.90;;;;;;5015988;28;20062;-82
2022/01/15 07:46:43;;;;;;;113.22;102.32;;;6.80;99.90;;;;;;4999235;28;20049;-83
2022/01/15 07:49:10;;;;;;;;;;;6.80;99.90;;;;;;5016222;28;20161;-82
2022/01/15 07:51:37;;;;;;;;;;;6.70;99.90;;;;;;5016356;28;19955;-82
2022/01/15 07:54:04;;;;;;;;;;;6.80;99.90;;;;;;5016514;28;19929;-82
2022/01/15 07:56:30;;;;;;;;;;;6.70;99.90;;;;;;5033415;28;19948;-83
2022/01/15 07:58:58;;;;;;;115.57;104.28;;;6.70;99.90;;;;;;5032264;28;20021;-81
2022/01/15 08:01:27;;;;;;;;;;;6.70;99.90;;;;;;5016360;28;20561;-83
2022/01/15 08:03:55;;;;;;;114.10;102.90;;;6.70;99.90;;;;;;4999476;28;20027;-83
2022/01/15 08:06:22;;;;;;;;;;;6.70;99.90;;;;;;5018216;28;20054;-82
2022/01/15 08:08:48;;;;;;;;;;;6.70;99.90;;;;;;5052929;28;20103;-83
2022/01/15 08:11:15;;;;;;;;;;;6.60;99.90;;;;;;5036437;28;19925;-83
2022/01/15 08:13:43;;;;;;;;;;;6.60;99.90;;;;;;5019757;28;19929;-82
2022/01/15 08:16:10;;;;;;;117.18;105.68;;;6.60;99.90;;;;;;5018982;28;20166;-84
2022/01/15 08:18:38;;;;;;;117.10;105.68;;;6.60;99.90;;;;;;5018080;28;20072;-82
2022/01/15 08:21:07;;;;;;;117.50;106.03;;;6.60;99.90;;;;;;5002605;28;20057;-83
2022/01/15 08:23:35;;;;;;;117.38;106.05;;;6.60;99.90;;;;;;5012281;28;20054;-82
2022/01/15 08:26:03;;;;;;;115.55;104.35;;;6.60;99.90;;;;;;5022288;28;20049;-83
2022/01/15 08:28:30;;;;;;;118.00;106.70;;;6.50;99.90;;;;;;5038290;28;20135;-82
2022/01/15 08:30:57;;;;;;;115.72;104.63;;;6.60;99.90;;;;;;5031488;28;20058;-83
2022/01/15 08:33:24;;;;;;;117.85;106.47;;;6.60;99.90;;;;;;5017985;28;20145;-83
2022/01/15 08:35:53;;;;;;;117.10;105.90;;;6.60;99.90;;;;;;5018618;28;20050;-83
2022/01/15 08:38:20;;;;;;;119.22;107.95;;;6.60;99.90;;;;;;5033923;28;20152;-83
2022/01/15 08:40:47;;;;;;;119.82;108.53;;;6.60;99.90;;;;;;5026968;28;20050;-84
2022/01/15 08:43:14;;;;;;;120.00;108.50;;;6.60;99.90;;;;;;5017492;28;20140;-85
2022/01/15 08:45:42;;;;;;;;;;;6.60;99.90;;;;;;5018604;28;20057;-84
2022/01/15 08:48:09;;;;;;;119.88;108.28;;;6.50;99.90;;;;;;5000919;28;19930;-83
2022/01/15 08:50:37;;;;;;;119.38;107.95;;;6.50;99.90;;;;;;5024771;28;20057;-84
2022/01/15 08:53:07;;;;;;;121.75;110.00;;;6.50;99.90;;;;;;5021303;28;20132;-84
2022/01/15 08:55:35;;;;;;;121.03;109.43;;;6.60;99.90;;;;;;5031210;28;20077;-84
2022/01/15 08:58:03;;;;;;;121.80;110.10;;;6.50;99.90;;;;;;5001610;28;20053;-84
2022/01/15 09:00:32;;;;;;;121.40;109.90;;;6.60;99.90;;;;;;5000783;28;20077;-84
2022/01/15 09:02:59;;;;;;;121.28;109.78;;;6.60;99.90;;;;;;5001962;28;20054;-83
2022/01/15 09:05:26;;;;;;;122.22;110.53;;;6.60;99.90;;;;;;5051431;28;20419;-83
2022/01/15 09:07:54;;;;;;;120.95;109.25;;;6.50;99.90;;;;;;5018436;28;20134;-85
2022/01/15 09:10:23;;;;;;;121.90;110.20;;;6.50;99.90;;;;;;5001698;28;20050;-84
2022/01/15 09:12:50;;;;;;;122.57;110.90;;;6.50;99.90;;;;;;5021403;28;20090;-83
2022/01/15 09:15:18;;;;;;;122.85;111.25;;;6.50;99.90;;;;;;5026639;28;20085;-83
2022/01/15 09:17:46;;;;;;;119.03;107.53;;;6.50;99.90;;;;;;5031745;28;20054;-83
2022/01/15 09:20:13;;;;;;;;;;;6.50;99.90;;;;;;5020399;28;20528;-83
2022/01/15 09:22:40;;;;;;;120.28;108.57;;;6.50;99.90;;;;;;5034481;28;20406;-82
2022/01/15 09:25:08;;;;;;;121.10;109.28;;;6.50;99.90;;;;;;5001660;28;20053;-84
2022/01/15 09:30:21;;;;;;;121.38;109.43;;;6.50;99.90;;;;;;5013949;28;20058;-84
2022/01/15 09:32:51;;;;;;;124.32;112.40;;;6.50;99.90;;;;;;5016600;28;20046;-84
2022/01/15 09:35:21;;;;;;;119.88;107.93;;;6.50;99.90;;;;;;5029674;28;20138;-85
2022/01/15 09:37:50;;;;;;;120.95;109.05;;;6.50;99.90;;;;;;5010973;28;20050;-84
2022/01/15 09:40:18;;;;;;;124.55;112.50;;;6.50;99.90;;;;;;5024047;28;20054;-83
2022/01/15 09:42:49;;;;;;;122.18;110.38;;;6.40;99.90;;;;;;5034240;28;20046;-83
2022/01/15 09:45:17;;;;;;;121.95;110.05;;;6.40;99.90;;;;;;5017651;28;20053;-84
2022/01/15 09:47:45;;;;;;;122.20;110.30;;;6.40;99.90;;;;;;5013203;28;20176;-84
2022/01/15 09:50:15;;;;;;;122.07;110.30;;;6.40;99.90;;;;;;5028881;28;20108;-84
2022/01/15 09:52:42;;;;;;;122.32;110.40;;;6.40;99.90;;;;;;5001362;28;20046;-83
2022/01/15 09:55:12;;;;;;;121.95;109.97;;;6.40;99.90;;;;;;5050765;28;20057;-84
2022/01/15 09:57:41;;;;;;;124.22;112.20;;;6.40;99.90;;;;;;5050096;28;20516;-84
2022/01/15 10:00:14;;;;;;;124.88;112.75;;;6.40;99.90;;;;;;5000882;28;20046;-85
2022/01/15 10:02:42;;;;;;;123.18;111.18;;;6.40;99.90;;;;;;5033575;28;20050;-84
2022/01/15 10:05:10;;;;;;;122.45;110.38;;;6.40;99.90;;;;;;5000954;28;20058;-84
2022/01/15 10:07:39;;;;;;;121.45;109.45;;;6.40;99.90;;;;;;5033456;28;20524;-84
2022/01/15 10:10:14;;;;;;;123.35;111.28;;;6.30;99.90;;;;;;5015679;28;20054;-85
2022/01/15 10:12:42;;;;;;;124.88;112.78;;;6.30;99.90;;;;;;4997563;28;20055;-84
2022/01/15 10:15:15;;;;;;;123.95;111.85;;;6.30;99.90;;;;;;4997849;28;20059;-84
2022/01/15 10:17:43;;;;;;;120.85;108.93;;;6.30;99.90;;;;;;4981200;28;20078;-85
2022/01/15 10:20:13;;;;;;;123.65;111.43;;;6.30;99.90;;;;;;4981146;28;20085;-85
2022/01/15 10:22:42;;;;;;;121.82;109.93;;;6.40;99.90;;;;;;4997796;28;20517;-84
2022/01/15 10:25:14;;;;;;;120.15;108.45;;;6.40;99.90;;;;;;4997511;28;20058;-85
2022/01/15 10:27:42;;;;;;;120.05;108.45;;;6.40;99.90;;;;;;4997460;28;20057;-85
2022/01/15 10:30:14;;;;;;;121.82;110.20;;;6.40;99.90;;;;;;4981401;28;20133;-83
2022/01/15 10:32:52;;;;;;;120.57;109.07;;;6.40;99.90;;;;;;4981107;28;20132;-85
2022/01/15 10:35:20;;;;;;;122.38;110.47;;;6.40;99.90;;;;;;4981116;28;20583;-85
2022/01/15 10:37:52;;;;;;;123.03;111.15;;;6.40;99.90;;;;;;5014250;28;20133;-85
2022/01/15 10:40:22;;;;;;;118.90;107.32;;;6.40;99.90;;;;;;5036709;28;20151;-85
2022/01/15 10:42:55;;;;;;;120.38;108.53;;;6.40;99.90;;;;;;5020243;28;20046;-85
2022/01/15 10:45:25;;;;;;;119.70;108.07;;;6.40;99.90;;;;;;5054641;28;20053;-85
2022/01/15 10:47:55;;;;;;;121.70;110.20;;;6.40;99.90;;;;;;5021977;28;20802;-85
2022/01/15 10:50:27;;;;;;;122.70;111.00;;;6.50;99.90;;;;;;5000463;28;20946;-85
2022/01/15 10:52:56;;;;;;;121.00;109.30;;;6.50;99.90;;;;;;5016252;28;20054;-84
2022/01/15 10:55:29;;;;;;;122.60;110.90;;;6.50;99.90;;;;;;5033008;28;20054;-85
2022/01/15 10:57:59;;;;;;;121.53;109.82;;;6.40;99.90;;;;;;5015664;28;20058;-81
2022/01/15 11:00:30;;;;;;;121.20;109.40;;;6.40;99.90;;;;;;5032865;28;20077;-82
2022/01/15 11:02:59;;;;;;;122.80;110.90;;;6.40;99.90;;;;;;5017773;28;20097;-83
2022/01/15 11:05:32;;;;;;;120.07;108.38;;;6.40;99.90;;;;;;5000159;28;20053;-83
2022/01/15 11:08:20;;;;;;;122.57;110.63;;;6.40;99.90;;;;;;5002766;28;20057;-84
2022/01/15 11:10:53;;;;;;;121.70;109.80;;;6.40;99.90;;;;;;5016393;28;20495;-83
2022/01/15 11:13:23;;;;;;;125.43;113.32;;;6.30;99.90;;;;;;4992170;28;20081;-83
2022/01/15 11:15:56;;;;;;;124.70;112.72;;;6.30;99.90;;;;;;4887688;28;20551;-83
2022/01/15 11:18:25;;;;;;;124.25;112.18;;;6.30;99.90;;;;;;5020974;28;20054;-83
2022/01/15 11:20:54;;;;;;;124.05;112.05;;;6.30;99.90;;;;;;5002722;28;20049;-83
2022/01/15 11:23:23;;;;;;;124.07;112.03;;;6.30;99.90;;;;;;4999984;28;20081;-82
2022/01/15 11:25:52;;;;;;;120.35;108.50;;;6.30;99.90;;;;;;5049273;28;20135;-84
2022/01/15 11:28:20;;;;;;;123.07;111.07;;;6.20;99.90;;;;;;4999639;28;20137;-83
2022/01/15 11:30:53;;;;;;;122.18;110.18;;;6.30;99.90;;;;;;4999763;28;20171;-83
2022/01/15 11:33:22;;;;;;;121.57;109.57;;;6.30;99.90;;;;;;4999777;28;20138;-83
2022/01/15 11:35:50;;;;;;;122.60;110.60;;;6.20;99.90;;;;;;4998927;28;20050;-83
2022/01/15 11:38:37;;;;;;;123.97;111.78;;;6.20;99.90;;;;;;4999614;28;20057;-83
2022/01/15 11:41:04;;;;;;;124.13;111.82;;;6.20;99.90;;;;;;4988550;28;20140;-82
2022/01/15 11:43:42;;;;;;;121.68;109.53;;;6.20;99.90;;;;;;5029194;28;20049;-82
2022/01/15 11:46:30;;;;;;;124.75;112.45;;;6.10;99.90;;;;;;5038928;28;20099;-83
2022/01/15 11:49:26;;;;;;;124.03;111.72;;;6.10;99.90;;;;;;5018886;28;20149;-83
2022/01/15 11:51:55;;;;;;;124.55;112.28;;;6.10;99.90;;;;;;5019386;28;20133;-84
2022/01/15 11:54:22;;;;;;;123.18;111.00;;;6.00;99.90;;;;;;5001645;28;20141;-84
2022/01/15 11:56:49;;;;;;;121.80;109.60;;;6.00;99.90;;;;;;5018593;28;20056;-83
2022/01/15 11:59:31;;;;;;;;;;;6.00;99.90;;;;;;5018903;28;20049;-83
2022/01/15 12:02:02;;;;;;;123.05;110.85;;;6.00;99.90;;;;;;5004264;28;19932;-83
2022/01/15 12:04:30;;;;;;;124.70;112.28;;;6.00;99.90;;;;;;5002219;28;20057;-84
2022/01/15 12:07:16;;;;;;;125.97;113.50;;;5.90;99.90;;;;;;5020806;28;20103;-83
2022/01/15 12:09:45;;;;;;;123.57;111.30;;;5.90;99.90;;;;;;5001943;28;20046;-83
2022/01/15 12:12:44;;;;;;;124.32;112.10;;;5.90;99.90;;;;;;5002166;28;20050;-84
2022/01/15 12:15:17;;;;;;;122.30;110.22;;;5.90;99.90;;;;;;5005276;28;20053;-84
2022/01/15 12:17:47;;;;;;;125.40;113.10;;;5.90;99.90;;;;;;5017929;28;20057;-84
2022/01/15 12:20:36;;;;;;;125.00;112.68;;;5.80;99.90;;;;;;4988332;28;20948;-83
2022/01/15 12:23:23;;;;;;;124.95;112.65;;;5.80;99.90;;;;;;5029889;28;21194;-84
2022/01/15 12:25:51;;;;;;;125.30;113.00;;;5.80;99.90;;;;;;5021031;28;20427;-84
2022/01/15 12:28:19;;;;;;;124.50;112.38;;;5.80;99.90;;;;;;5002194;28;20057;-83
2022/01/15 12:30:48;;;;;;;126.70;114.30;;;5.80;99.90;;;;;;5017775;28;20048;-84
2022/01/15 12:33:18;;;;;;;124.88;112.57;;;5.80;99.90;;;;;;5025931;28;20058;-84
2022/01/15 12:35:47;;;;;;;124.32;111.93;;;5.80;99.90;;;;;;5002329;28;20050;-82
2022/01/15 12:38:16;;;;;;;125.63;113.28;;;5.80;99.90;;;;;;5000594;28;20102;-83
2022/01/15 12:40:45;;;;;;;125.53;112.88;;;5.80;99.90;;;;;;5014825;28;20085;-83
2022/01/15 12:43:16;;;;;;;126.88;114.38;;;5.80;99.90;;;;;;5036804;28;20507;-83
2022/01/15 12:45:46;;;;;;;126.10;113.50;;;5.80;99.90;;;;;;5034954;28;20125;-82
2022/01/15 12:48:17;;;;;;;126.15;113.70;;;5.80;99.90;;;;;;5019638;28;20141;-82
2022/01/15 12:50:47;;;;;;;126.43;113.97;;;5.80;99.90;;;;;;5007743;28;20136;-83